createdAt,value
2022-12-08T00:00:54.658Z,72.25
2022-12-08T00:03:27.147Z,71.50
2022-12-08T00:06:17.458Z,71.83
2022-12-08T00:09:08.336Z,71.64
2022-12-08T00:11:40.002Z,72.20
2022-12-08T00:14:14.350Z,71.55
2022-12-08T00:16:46.293Z,71.71
2022-12-08T00:19:18.109Z,71.82
2022-12-08T00:21:53.613Z,71.37
2022-12-08T00:24:30.810Z,71.13
2022-12-08T00:27:03.006Z,71.55
2022-12-08T00:29:34.720Z,71.56
2022-12-08T00:32:06.680Z,71.39
2022-12-08T00:34:38.398Z,71.45
2022-12-08T00:37:10.005Z,71.36
2022-12-08T00:39:41.626Z,71.67
2022-12-08T00:42:13.273Z,70.96
2022-12-08T00:44:45.937Z,71.11
2022-12-08T00:47:24.501Z,71.70
2022-12-08T00:49:57.319Z,71.57
2022-12-08T00:52:28.945Z,71.40
2022-12-08T00:55:00.612Z,71.06
2022-12-08T00:57:35.038Z,70.82
2022-12-08T01:00:09.857Z,70.92
2022-12-08T01:02:41.328Z,71.09
2022-12-08T01:05:12.920Z,71.27
2022-12-08T01:07:44.866Z,71.32
2022-12-08T01:10:17.004Z,70.74
2022-12-08T01:12:48.549Z,71.39
2022-12-08T01:15:20.188Z,71.48
2022-12-08T01:17:51.783Z,70.95
2022-12-08T01:20:23.435Z,71.11
2022-12-08T01:22:55.050Z,71.18
2022-12-08T01:25:29.652Z,71.00
2022-12-08T01:28:01.358Z,70.85
2022-12-08T01:30:33.112Z,70.85
2022-12-08T01:33:05.302Z,70.77
2022-12-08T01:35:40.469Z,71.01
2022-12-08T01:38:12.082Z,70.82
2022-12-08T01:40:43.805Z,71.06
2022-12-08T01:43:20.299Z,70.92
2022-12-08T01:45:51.982Z,71.00
2022-12-08T01:48:27.920Z,71.14
2022-12-08T01:51:02.630Z,71.10
2022-12-08T01:53:34.393Z,71.09
2022-12-08T01:56:10.051Z,70.53
2022-12-08T01:58:46.494Z,71.19
2022-12-08T02:01:23.613Z,71.07
2022-12-08T02:04:00.380Z,71.14
2022-12-08T02:06:36.688Z,70.92
2022-12-08T02:09:11.841Z,71.58
2022-12-08T02:11:43.516Z,71.57
2022-12-08T02:14:18.356Z,71.55
2022-12-08T02:17:08.561Z,71.47
2022-12-08T02:20:20.357Z,71.67
2022-12-08T02:23:30.779Z,71.78
2022-12-08T02:26:20.611Z,71.33
2022-12-08T02:29:18.711Z,71.03
2022-12-08T02:32:15.217Z,71.14
2022-12-08T02:34:49.455Z,71.43
2022-12-08T02:37:32.759Z,71.12
2022-12-08T02:40:33.450Z,71.67
2022-12-08T02:43:14.338Z,71.44
2022-12-08T02:45:55.411Z,71.11
2022-12-08T02:48:28.977Z,71.13
2022-12-08T02:51:01.344Z,71.05
2022-12-08T02:53:35.165Z,70.61
2022-12-08T02:56:18.783Z,70.15
2022-12-08T02:58:52.931Z,70.71
2022-12-08T03:01:49.620Z,70.03
2022-12-08T03:04:33.148Z,70.34
2022-12-08T03:07:15.611Z,70.38
2022-12-08T03:09:55.061Z,70.63
2022-12-08T03:12:55.547Z,69.71
2022-12-08T03:15:27.687Z,69.97
2022-12-08T03:18:00.920Z,69.88
2022-12-08T03:20:34.904Z,70.44
2022-12-08T03:23:11.009Z,70.20
2022-12-08T03:26:08.595Z,70.12
2022-12-08T03:28:40.437Z,70.24
2022-12-08T03:31:16.061Z,69.53
2022-12-08T03:33:51.901Z,69.96
2022-12-08T03:36:24.079Z,69.68
2022-12-08T03:38:55.657Z,69.79
2022-12-08T03:41:30.151Z,69.79
2022-12-08T03:44:01.809Z,70.14
2022-12-08T03:46:33.557Z,70.03
2022-12-08T03:49:05.329Z,69.75
2022-12-08T03:51:37.008Z,69.55
2022-12-08T03:54:09.792Z,69.56
2022-12-08T03:56:41.411Z,69.73
2022-12-08T03:59:13.227Z,69.52
2022-12-08T04:01:44.951Z,69.48
2022-12-08T04:04:20.624Z,69.78
2022-12-08T04:06:54.839Z,69.52
2022-12-08T04:09:26.484Z,69.80
2022-12-08T04:11:58.094Z,69.50
2022-12-08T04:14:33.742Z,69.11
2022-12-08T04:17:05.719Z,69.16
2022-12-08T04:19:37.363Z,69.16
2022-12-08T04:22:09.033Z,69.83
2022-12-08T04:24:43.284Z,69.13
2022-12-08T04:27:14.994Z,68.91
2022-12-08T04:29:49.218Z,69.15
2022-12-08T04:32:20.864Z,69.21
2022-12-08T04:34:52.490Z,69.54
2022-12-08T04:37:24.153Z,69.14
2022-12-08T04:39:55.737Z,69.58
2022-12-08T04:42:27.358Z,69.05
2022-12-08T04:44:58.920Z,69.24
2022-12-08T04:47:30.540Z,68.99
2022-12-08T04:50:02.957Z,69.45
2022-12-08T04:52:35.216Z,68.99
2022-12-08T04:55:07.055Z,69.29
2022-12-08T04:57:38.712Z,69.58
2022-12-08T05:00:11.284Z,69.06
2022-12-08T05:02:42.990Z,69.72
2022-12-08T05:05:17.986Z,69.56
2022-12-08T05:07:49.629Z,69.49
2022-12-08T05:10:21.621Z,69.33
2022-12-08T05:12:53.520Z,69.74
2022-12-08T05:15:25.388Z,69.63
2022-12-08T05:17:57.016Z,69.52
2022-12-08T05:20:28.680Z,69.77
2022-12-08T05:23:00.643Z,69.74
2022-12-08T05:25:32.276Z,70.24
2022-12-08T05:28:32.909Z,69.71
2022-12-08T05:30:55.494Z,70.21
2022-12-08T05:33:27.101Z,70.02
2022-12-08T05:35:58.728Z,70.45
2022-12-08T05:38:30.823Z,70.66
2022-12-08T05:41:02.537Z,70.44
2022-12-08T05:43:34.460Z,70.64
2022-12-08T05:46:08.071Z,70.51
2022-12-08T05:48:40.184Z,71.05
2022-12-08T05:51:21.215Z,72.11
2022-12-08T05:53:55.104Z,71.79
2022-12-08T05:56:26.711Z,72.02
2022-12-08T05:58:58.347Z,71.80
2022-12-08T06:01:34.333Z,71.56
2022-12-08T06:04:05.959Z,72.35
2022-12-08T06:06:38.566Z,72.66
2022-12-08T06:09:10.410Z,72.80
2022-12-08T06:11:42.515Z,72.90
2022-12-08T06:14:14.208Z,72.99
2022-12-08T06:16:49.732Z,73.41
2022-12-08T06:19:21.373Z,72.83
2022-12-08T06:21:53.064Z,72.84
2022-12-08T06:24:24.737Z,73.25
2022-12-08T06:26:56.382Z,73.08
2022-12-08T06:29:28.043Z,72.59
2022-12-08T06:31:59.712Z,72.53
2022-12-08T06:34:31.788Z,72.75
2022-12-08T06:37:03.441Z,72.51
2022-12-08T06:39:36.114Z,72.30
2022-12-08T06:42:26.616Z,72.06
2022-12-08T06:44:58.524Z,72.29
2022-12-08T06:47:30.170Z,72.35
2022-12-08T06:50:02.470Z,72.25
2022-12-08T06:52:37.637Z,72.02
2022-12-08T06:55:29.166Z,71.62
2022-12-08T06:58:05.425Z,71.71
2022-12-08T07:00:37.070Z,71.93
2022-12-08T07:03:10.258Z,71.45
2022-12-08T07:05:41.912Z,71.61
2022-12-08T07:08:15.258Z,71.99
2022-12-08T07:10:46.895Z,71.81
2022-12-08T07:13:18.613Z,71.96
2022-12-08T07:15:50.279Z,71.53
2022-12-08T07:18:22.249Z,71.05
2022-12-08T07:20:53.797Z,71.57
2022-12-08T07:23:25.461Z,70.89
2022-12-08T07:26:02.423Z,70.60
2022-12-08T07:28:35.885Z,70.75
2022-12-08T07:31:15.983Z,70.74
2022-12-08T07:33:47.948Z,70.62
2022-12-08T07:36:19.677Z,70.10
2022-12-08T07:38:53.368Z,69.92
2022-12-08T07:41:26.321Z,70.22
2022-12-08T07:43:57.934Z,70.16
2022-12-08T07:46:29.632Z,69.19
2022-12-08T07:49:01.389Z,69.25
2022-12-08T07:51:33.077Z,69.72
2022-12-08T07:54:04.962Z,68.71
2022-12-08T07:56:36.546Z,69.11
2022-12-08T07:59:08.153Z,68.79
2022-12-08T08:01:40.434Z,68.71
2022-12-08T08:04:12.197Z,68.27
2022-12-08T08:06:43.823Z,65.92
2022-12-08T08:09:15.550Z,62.14
2022-12-08T08:12:01.294Z,59.82
2022-12-08T08:14:39.884Z,60.20
2022-12-08T08:17:11.609Z,59.32
2022-12-08T08:19:46.282Z,56.64
2022-12-08T08:22:17.931Z,52.19
2022-12-08T08:24:52.293Z,52.77
2022-12-08T08:27:25.057Z,52.11
2022-12-08T08:29:56.623Z,53.29
2022-12-08T08:32:28.292Z,54.41
2022-12-08T08:35:01.321Z,55.77
2022-12-08T08:37:32.949Z,56.49
2022-12-08T08:40:06.307Z,57.21
2022-12-08T08:42:38.047Z,57.92
2022-12-08T08:45:10.087Z,59.02
2022-12-08T08:47:41.730Z,59.67
2022-12-08T08:50:14.414Z,59.97
2022-12-08T08:52:46.058Z,60.41
2022-12-08T08:55:18.929Z,61.09
2022-12-08T08:57:50.572Z,61.17
2022-12-08T09:00:22.445Z,61.17
2022-12-08T09:02:54.021Z,61.07
2022-12-08T09:05:26.100Z,61.34
2022-12-08T09:07:57.888Z,61.73
2022-12-08T09:10:30.412Z,61.19
2022-12-08T09:13:02.066Z,61.07
2022-12-08T09:15:33.763Z,61.22
2022-12-08T09:18:06.867Z,61.12
2022-12-08T09:20:38.655Z,60.95
2022-12-08T09:23:10.321Z,60.78
2022-12-08T09:25:45.950Z,60.69
2022-12-08T09:28:17.557Z,60.79
2022-12-08T09:30:51.616Z,61.08
2022-12-08T09:33:26.472Z,61.20
2022-12-08T09:36:03.921Z,61.47
2022-12-08T09:38:39.514Z,61.62
2022-12-08T09:41:36.559Z,61.57
2022-12-08T09:44:36.084Z,60.66
2022-12-08T09:47:35.349Z,60.88
2022-12-08T09:50:19.621Z,60.58
2022-12-08T09:53:08.539Z,61.08
2022-12-08T09:55:49.459Z,60.05
2022-12-08T09:58:47.586Z,59.67
2022-12-08T10:01:21.559Z,59.65
2022-12-08T10:03:58.825Z,60.10
2022-12-08T10:06:59.931Z,59.80
2022-12-08T10:09:41.796Z,59.42
2022-12-08T10:12:19.332Z,59.79
2022-12-08T10:15:12.620Z,60.16
2022-12-08T10:17:51.052Z,60.44
2022-12-08T10:20:34.200Z,59.96
2022-12-08T10:23:09.063Z,60.11
2022-12-08T10:26:08.092Z,59.54
2022-12-08T10:28:44.809Z,59.21
2022-12-08T10:31:20.015Z,58.96
2022-12-08T10:33:58.846Z,58.57
2022-12-08T10:36:49.769Z,57.88
2022-12-08T10:39:35.409Z,57.28
2022-12-08T10:42:16.415Z,57.43
2022-12-08T10:45:09.347Z,56.40
2022-12-08T10:47:55.597Z,57.50
2022-12-08T10:50:43.673Z,56.34
2022-12-08T10:53:20.752Z,56.74
2022-12-08T10:56:05.854Z,56.54
2022-12-08T10:58:37.491Z,55.92
2022-12-08T11:01:28.207Z,56.36
2022-12-08T11:04:02.605Z,56.96
2022-12-08T11:06:35.680Z,56.92
2022-12-08T11:09:24.028Z,56.66
2022-12-08T11:11:59.484Z,56.61
2022-12-08T11:14:49.374Z,56.64
2022-12-08T11:17:29.835Z,56.17
2022-12-08T11:20:09.340Z,56.30
2022-12-08T11:22:46.395Z,52.47
2022-12-08T11:25:21.452Z,48.71
2022-12-08T11:27:59.548Z,43.84
2022-12-08T11:30:45.036Z,42.95
2022-12-08T11:33:21.667Z,39.51
2022-12-08T11:36:15.031Z,37.82
2022-12-08T11:38:49.229Z,36.69
2022-12-08T11:41:29.718Z,34.00
2022-12-08T11:44:07.583Z,34.84
2022-12-08T11:46:52.054Z,32.28
2022-12-08T11:49:39.904Z,33.10
2022-12-08T11:52:29.561Z,32.62
2022-12-08T11:55:25.614Z,32.80
2022-12-08T11:58:11.462Z,33.31
2022-12-08T12:00:43.187Z,33.48
2022-12-08T12:03:30.150Z,32.35
2022-12-08T12:06:53.203Z,32.36
2022-12-08T12:09:28.848Z,31.93
2022-12-08T12:12:23.061Z,32.32
2022-12-08T12:15:19.697Z,33.87
2022-12-08T12:17:54.517Z,34.46
2022-12-08T12:20:30.256Z,35.79
2022-12-08T12:23:07.204Z,36.70
2022-12-08T12:25:50.663Z,39.18
2022-12-08T12:28:26.806Z,40.37
2022-12-08T12:31:06.819Z,41.69
2022-12-08T12:33:38.551Z,42.91
2022-12-08T12:36:11.360Z,44.00
2022-12-08T12:39:01.221Z,45.35
2022-12-08T12:41:42.082Z,46.10
2022-12-08T12:44:13.678Z,47.32
2022-12-08T12:46:48.817Z,47.19
2022-12-08T12:49:38.843Z,47.35
2022-12-08T12:52:10.543Z,46.91
2022-12-08T12:54:43.959Z,47.56
2022-12-08T12:57:22.000Z,46.95
2022-12-08T12:59:55.845Z,47.61
2022-12-08T13:02:33.950Z,48.71
2022-12-08T13:05:21.962Z,47.44
2022-12-08T13:08:07.889Z,47.91
2022-12-08T13:10:48.578Z,47.82
2022-12-08T13:13:20.385Z,48.90
2022-12-08T13:15:55.521Z,50.15
2022-12-08T13:18:36.476Z,50.57
2022-12-08T13:21:10.901Z,50.62
2022-12-08T13:23:49.341Z,51.73
2022-12-08T13:26:26.932Z,51.56
2022-12-08T13:29:01.567Z,52.52
2022-12-08T13:31:36.091Z,52.97
2022-12-08T13:34:25.773Z,53.00
2022-12-08T13:37:06.272Z,53.49
2022-12-08T13:39:40.713Z,53.00
2022-12-08T13:42:12.453Z,53.82
2022-12-08T13:48:23.508Z,53.25
2022-12-08T13:55:06.871Z,53.16
2022-12-08T13:57:14.004Z,53.63
2022-12-08T13:59:45.963Z,53.66
2022-12-08T14:02:26.701Z,53.45
2022-12-08T14:07:54.954Z,53.66
2022-12-08T14:10:29.376Z,53.98
2022-12-08T14:13:05.499Z,53.84
2022-12-08T14:15:39.655Z,54.49
2022-12-08T14:18:31.034Z,54.42
2022-12-08T14:21:21.139Z,54.36
2022-12-08T14:23:53.341Z,54.34
2022-12-08T14:26:25.020Z,54.93
2022-12-08T14:28:56.881Z,54.86
2022-12-08T14:31:29.219Z,54.69
2022-12-08T14:34:00.952Z,54.61
2022-12-08T14:36:33.851Z,55.11
2022-12-08T14:39:05.564Z,54.81
2022-12-08T14:41:37.387Z,55.26
2022-12-08T14:44:27.653Z,55.68
2022-12-08T14:47:09.583Z,55.71
2022-12-08T14:49:41.440Z,55.88
2022-12-08T14:52:13.785Z,56.40
2022-12-08T14:54:46.053Z,56.66
2022-12-08T14:57:18.234Z,56.55
2022-12-08T14:59:50.358Z,56.74
2022-12-08T15:02:31.076Z,57.07
2022-12-08T15:05:22.527Z,57.07
2022-12-08T15:08:00.140Z,57.36
2022-12-08T15:10:37.699Z,57.37
2022-12-08T15:13:09.201Z,57.63
2022-12-08T15:15:54.299Z,57.83
2022-12-08T15:18:28.555Z,57.68
2022-12-08T15:21:06.127Z,57.67
2022-12-08T15:23:44.730Z,57.68
2022-12-08T15:26:21.836Z,57.84
2022-12-08T15:28:54.595Z,57.78
2022-12-08T15:31:26.217Z,57.50
2022-12-08T15:33:57.813Z,57.96
2022-12-08T15:36:36.465Z,57.81
2022-12-08T15:39:20.752Z,58.31
2022-12-08T15:41:52.391Z,58.26
2022-12-08T15:44:24.078Z,58.58
2022-12-08T15:46:56.182Z,58.23
2022-12-08T15:49:28.021Z,58.32
2022-12-08T15:52:11.254Z,58.03
2022-12-08T15:54:43.589Z,57.83
2022-12-08T16:00:51.193Z,57.94
2022-12-08T16:09:31.521Z,58.10
2022-12-08T16:12:21.959Z,58.24
2022-12-08T16:17:45.804Z,58.15
2022-12-08T16:20:18.208Z,58.33
2022-12-08T16:22:59.541Z,58.25
2022-12-08T16:26:08.622Z,58.29
2022-12-08T16:28:53.527Z,58.20
2022-12-08T16:31:23.100Z,58.45
2022-12-08T16:33:55.064Z,58.56
2022-12-08T16:36:26.661Z,58.71
2022-12-08T16:38:58.304Z,58.74
2022-12-08T16:41:48.259Z,58.96
2022-12-08T16:44:19.843Z,58.89
2022-12-08T16:46:51.461Z,58.78
2022-12-08T16:49:23.058Z,59.33
2022-12-08T16:51:54.738Z,59.09
2022-12-08T16:54:26.349Z,59.00
2022-12-08T16:56:58.065Z,59.05
2022-12-08T16:59:32.596Z,58.78
2022-12-08T17:02:04.469Z,59.14
2022-12-08T17:04:36.134Z,59.11
2022-12-08T17:07:07.852Z,58.63
2022-12-08T17:09:39.420Z,58.99
2022-12-08T17:12:11.101Z,59.26
2022-12-08T17:14:42.795Z,59.12
2022-12-08T17:17:16.400Z,59.02
2022-12-08T17:19:47.985Z,59.44
2022-12-08T17:22:19.577Z,59.34
2022-12-08T17:24:51.174Z,59.36
2022-12-08T17:27:25.943Z,59.60
2022-12-08T17:29:57.384Z,59.65
2022-12-08T17:32:29.093Z,59.81
2022-12-08T17:35:03.243Z,60.08
2022-12-08T17:37:35.202Z,59.85
2022-12-08T17:40:07.920Z,59.92
2022-12-08T17:42:39.828Z,60.03
2022-12-08T17:45:11.529Z,59.92
2022-12-08T17:47:43.096Z,60.09
2022-12-08T17:50:14.769Z,60.46
2022-12-08T17:52:50.889Z,60.62
2022-12-08T17:55:25.311Z,60.63
2022-12-08T17:57:56.974Z,60.22
2022-12-08T18:00:28.968Z,60.08
2022-12-08T18:03:00.756Z,60.64
2022-12-08T18:05:35.223Z,60.63
2022-12-08T18:08:07.052Z,60.69
2022-12-08T18:10:39.031Z,60.49
2022-12-08T18:13:10.744Z,60.72
2022-12-08T18:15:42.349Z,60.73
2022-12-08T18:18:13.917Z,60.90
2022-12-08T18:20:46.518Z,61.20
2022-12-08T18:23:18.721Z,61.21
2022-12-08T18:25:50.320Z,61.15
2022-12-08T18:28:21.963Z,60.95
2022-12-08T18:30:53.708Z,61.12
2022-12-08T18:33:25.353Z,61.11
2022-12-08T18:35:56.933Z,61.07
2022-12-08T18:38:28.578Z,61.12
2022-12-08T18:41:10.861Z,61.28
2022-12-08T18:43:42.470Z,60.90
2022-12-08T18:46:16.143Z,61.46
2022-12-08T18:48:49.214Z,61.35
2022-12-08T18:51:23.534Z,61.04
2022-12-08T18:53:55.195Z,60.76
2022-12-08T18:56:32.169Z,61.11
2022-12-08T18:59:09.275Z,61.23
2022-12-08T19:01:41.033Z,60.70
2022-12-08T19:04:29.198Z,60.95
2022-12-08T19:07:01.332Z,60.60
2022-12-08T19:09:32.924Z,60.87
2022-12-08T19:12:05.152Z,60.98
2022-12-08T19:14:36.753Z,61.08
2022-12-08T19:17:08.342Z,61.44
2022-12-08T19:19:39.963Z,61.42
2022-12-08T19:22:12.323Z,61.32
2022-12-08T19:24:43.981Z,61.47
2022-12-08T19:27:15.575Z,61.16
2022-12-08T19:29:47.316Z,61.16
2022-12-08T19:32:19.028Z,61.24
2022-12-08T19:34:51.336Z,61.12
2022-12-08T19:37:22.962Z,61.49
2022-12-08T19:40:13.412Z,61.50
2022-12-08T19:43:03.625Z,61.38
2022-12-08T19:45:35.847Z,61.31
2022-12-08T19:48:08.450Z,61.75
2022-12-08T19:50:40.617Z,62.21
2022-12-08T19:53:14.719Z,62.22
2022-12-08T19:55:47.977Z,61.39
2022-12-08T19:58:19.661Z,61.62
2022-12-08T20:00:51.379Z,61.78
2022-12-08T20:03:23.173Z,62.36
2022-12-08T20:05:54.867Z,61.86
2022-12-08T20:08:26.544Z,62.13
2022-12-08T20:10:59.454Z,61.91
2022-12-08T20:13:45.787Z,62.02
2022-12-08T20:16:17.831Z,61.53
2022-12-08T20:18:52.267Z,61.38
2022-12-08T20:21:24.026Z,61.42
2022-12-08T20:23:55.803Z,62.39
2022-12-08T20:26:27.570Z,62.48
2022-12-08T20:28:59.368Z,62.29
2022-12-08T20:31:32.760Z,62.20
2022-12-08T20:34:04.548Z,62.34
2022-12-08T20:36:36.154Z,62.09
2022-12-08T20:39:12.615Z,62.09
2022-12-08T20:41:45.871Z,62.17
2022-12-08T20:44:17.977Z,62.13
2022-12-08T20:46:49.931Z,62.24
2022-12-08T20:49:28.321Z,62.62
2022-12-08T20:52:03.163Z,62.72
2022-12-08T20:54:35.719Z,62.84
2022-12-08T20:57:07.529Z,62.45
2022-12-08T20:59:39.158Z,62.38
2022-12-08T21:02:11.678Z,62.93
2022-12-08T21:04:43.549Z,63.25
2022-12-08T21:07:15.592Z,62.59
2022-12-08T21:09:47.846Z,62.47
2022-12-08T21:12:19.614Z,62.74
2022-12-08T21:14:51.264Z,62.60
2022-12-08T21:17:26.024Z,63.17
2022-12-08T21:19:57.691Z,63.32
2022-12-08T21:22:30.329Z,63.03
2022-12-08T21:25:02.032Z,63.28
2022-12-08T21:27:33.740Z,63.37
2022-12-08T21:30:08.198Z,63.48
2022-12-08T21:32:40.208Z,64.14
2022-12-08T21:35:12.173Z,64.45
2022-12-08T21:37:43.904Z,64.27
2022-12-08T21:40:15.699Z,63.82
2022-12-08T21:42:47.644Z,63.86
2022-12-08T21:45:20.653Z,64.01
2022-12-08T21:47:52.605Z,65.00
2022-12-08T21:50:24.440Z,65.09
2022-12-08T21:52:56.243Z,65.09
2022-12-08T21:55:28.080Z,65.05
2022-12-08T21:58:00.984Z,65.19
2022-12-08T22:00:32.920Z,64.91
2022-12-08T22:03:05.597Z,64.80
2022-12-08T22:05:37.559Z,64.88
2022-12-08T22:08:09.432Z,64.73
2022-12-08T22:10:46.320Z,65.28
2022-12-08T22:13:18.537Z,65.49
2022-12-08T22:16:10.448Z,65.72
2022-12-08T22:18:42.775Z,66.02
2022-12-08T22:21:18.070Z,65.70
2022-12-08T22:23:52.416Z,65.73
2022-12-08T22:26:24.147Z,65.86
2022-12-08T22:28:55.849Z,66.66
2022-12-08T22:31:27.813Z,66.32
2022-12-08T22:33:59.975Z,66.75
2022-12-08T22:36:31.643Z,67.18
2022-12-08T22:39:04.371Z,67.39
2022-12-08T22:41:36.132Z,67.79
2022-12-08T22:44:08.333Z,67.31
2022-12-08T22:46:40.064Z,67.87
2022-12-08T22:49:11.756Z,68.07
2022-12-08T22:51:43.347Z,68.05
2022-12-08T22:54:14.950Z,67.77
2022-12-08T22:56:46.555Z,67.64
2022-12-08T22:59:20.164Z,67.57
2022-12-08T23:01:53.968Z,66.98
2022-12-08T23:04:25.939Z,67.13
2022-12-08T23:06:57.668Z,67.04
2022-12-08T23:09:31.695Z,67.50
2022-12-08T23:12:04.141Z,67.16
2022-12-08T23:14:35.819Z,67.77
2022-12-08T23:17:08.119Z,66.96
2022-12-08T23:19:40.322Z,67.55
2022-12-08T23:22:11.905Z,67.43
2022-12-08T23:24:43.773Z,66.67
2022-12-08T23:27:15.395Z,66.67
2022-12-08T23:29:47.185Z,66.38
2022-12-08T23:32:18.882Z,65.71
2022-12-08T23:34:50.879Z,65.65
2022-12-08T23:37:22.787Z,65.64
2022-12-08T23:39:56.810Z,65.76
2022-12-08T23:42:31.495Z,65.98
2022-12-08T23:45:04.578Z,65.63
2022-12-08T23:47:36.431Z,66.21
2022-12-08T23:50:08.720Z,66.29
2022-12-08T23:52:40.648Z,66.04
2022-12-08T23:55:12.307Z,66.38
2022-12-08T23:57:44.100Z,66.70
